sensor_id;sensor_type;location;lat;lon;timestamp;temperature;humidity
18268;DHT22;9260;49.998;19.880;2023-03-01T00:07:09;-6.60;99.90
18268;DHT22;9260;49.998;19.880;2023-03-01T00:17:13;-6.60;99.90
18268;DHT22;9260;49.998;19.880;2023-03-01T00:27:18;-6.60;99.90
18268;DHT22;9260;49.998;19.880;2023-03-01T00:37:23;-6.60;99.90
18268;DHT22;9260;49.998;19.880;2023-03-01T00:47:30;-6.70;99.90
18268;DHT22;9260;49.998;19.880;2023-03-01T00:57:33;-6.80;99.90
18268;DHT22;9260;49.998;19.880;2023-03-01T01:07:38;-7.00;99.90
18268;DHT22;9260;49.998;19.880;2023-03-01T01:17:42;-7.00;99.90
18268;DHT22;9260;49.998;19.880;2023-03-01T01:27:47;-7.20;99.90
18268;DHT22;9260;49.998;19.880;2023-03-01T01:37:50;-7.30;99.90
18268;DHT22;9260;49.998;19.880;2023-03-01T01:47:58;-7.40;99.90
18268;DHT22;9260;49.998;19.880;2023-03-01T01:58:08;-7.50;99.90
18268;DHT22;9260;49.998;19.880;2023-03-01T02:08:15;-7.50;99.90
18268;DHT22;9260;49.998;19.880;2023-03-01T02:18:21;-7.60;99.90
18268;DHT22;9260;49.998;19.880;2023-03-01T02:28:29;-7.60;99.90
18268;DHT22;9260;49.998;19.880;2023-03-01T02:38:34;-7.80;99.90
18268;DHT22;9260;49.998;19.880;2023-03-01T02:48:44;-7.80;99.90
18268;DHT22;9260;49.998;19.880;2023-03-01T02:58:49;-7.80;99.90
18268;DHT22;9260;49.998;19.880;2023-03-01T03:08:55;-7.80;99.90
18268;DHT22;9260;49.998;19.880;2023-03-01T03:18:59;-7.80;99.90
18268;DHT22;9260;49.998;19.880;2023-03-01T03:29:08;-7.80;99.90
18268;DHT22;9260;49.998;19.880;2023-03-01T03:39:11;-7.80;99.90
18268;DHT22;9260;49.998;19.880;2023-03-01T03:49:16;-7.90;99.90
18268;DHT22;9260;49.998;19.880;2023-03-01T03:59:20;-7.90;99.90
18268;DHT22;9260;49.998;19.880;2023-03-01T04:09:24;-7.70;99.90
18268;DHT22;9260;49.998;19.880;2023-03-01T04:19:28;-7.80;99.90
18268;DHT22;9260;49.998;19.880;2023-03-01T04:29:39;-7.80;99.90
18268;DHT22;9260;49.998;19.880;2023-03-01T04:39:42;-7.90;99.90
18268;DHT22;9260;49.998;19.880;2023-03-01T04:49:48;-8.10;99.90
18268;DHT22;9260;49.998;19.880;2023-03-01T04:59:52;-8.10;99.90
18268;DHT22;9260;49.998;19.880;2023-03-01T05:09:57;-8.10;99.90
18268;DHT22;9260;49.998;19.880;2023-03-01T05:20:00;-8.30;99.90
18268;DHT22;9260;49.998;19.880;2023-03-01T05:30:11;-8.30;99.90
18268;DHT22;9260;49.998;19.880;2023-03-01T05:40:20;-8.40;99.90
18268;DHT22;9260;49.998;19.880;2023-03-01T05:50:29;-8.30;99.90
18268;DHT22;9260;49.998;19.880;2023-03-01T06:00:34;-8.10;99.90
18268;DHT22;9260;49.998;19.880;2023-03-01T06:10:39;-7.80;99.90
18268;DHT22;9260;49.998;19.880;2023-03-01T06:20:43;-7.20;99.90
18268;DHT22;9260;49.998;19.880;2023-03-01T06:30:49;-6.70;99.90
18268;DHT22;9260;49.998;19.880;2023-03-01T06:40:53;-6.10;99.90
18268;DHT22;9260;49.998;19.880;2023-03-01T06:51:00;-5.40;99.90
18268;DHT22;9260;49.998;19.880;2023-03-01T07:01:05;-1.50;99.90
18268;DHT22;9260;49.998;19.880;2023-03-01T07:11:11;3.00;99.90
18268;DHT22;9260;49.998;19.880;2023-03-01T07:21:15;5.80;99.90
18268;DHT22;9260;49.998;19.880;2023-03-01T07:31:20;8.40;99.90
18268;DHT22;9260;49.998;19.880;2023-03-01T07:41:23;10.50;99.90
18268;DHT22;9260;49.998;19.880;2023-03-01T07:51:28;12.00;99.90
18268;DHT22;9260;49.998;19.880;2023-03-01T08:01:31;14.10;99.90
18268;DHT22;9260;49.998;19.880;2023-03-01T08:11:36;15.50;99.90
18268;DHT22;9260;49.998;19.880;2023-03-01T08:21:40;16.50;99.90
18268;DHT22;9260;49.998;19.880;2023-03-01T08:31:45;19.00;99.90
18268;DHT22;9260;49.998;19.880;2023-03-01T08:41:48;21.10;99.90
18268;DHT22;9260;49.998;19.880;2023-03-01T08:51:53;22.90;99.90
18268;DHT22;9260;49.998;19.880;2023-03-01T09:01:57;23.70;99.90
18268;DHT22;9260;49.998;19.880;2023-03-01T09:12:02;25.90;99.90
18268;DHT22;9260;49.998;19.880;2023-03-01T09:22:06;26.50;99.90
18268;DHT22;9260;49.998;19.880;2023-03-01T09:32:11;27.60;99.90
18268;DHT22;9260;49.998;19.880;2023-03-01T09:42:14;28.10;99.90
18268;DHT22;9260;49.998;19.880;2023-03-01T09:52:25;28.10;99.90
18268;DHT22;9260;49.998;19.880;2023-03-01T10:02:39;30.50;99.90
18268;DHT22;9260;49.998;19.880;2023-03-01T10:12:47;31.80;99.90
18268;DHT22;9260;49.998;19.880;2023-03-01T10:22:51;34.40;99.90
18268;DHT22;9260;49.998;19.880;2023-03-01T10:32:58;35.30;99.90
18268;DHT22;9260;49.998;19.880;2023-03-01T10:43:05;34.50;99.90
18268;DHT22;9260;49.998;19.880;2023-03-01T10:53:24;35.60;99.90
18268;DHT22;9260;49.998;19.880;2023-03-01T11:03:32;34.80;99.90
18268;DHT22;9260;49.998;19.880;2023-03-01T11:13:40;36.40;99.90
18268;DHT22;9260;49.998;19.880;2023-03-01T11:23:52;36.80;99.90
18268;DHT22;9260;49.998;19.880;2023-03-01T11:34:02;35.90;99.90
18268;DHT22;9260;49.998;19.880;2023-03-01T11:44:18;37.40;99.90
18268;DHT22;9260;49.998;19.880;2023-03-01T11:54:36;38.20;99.90
18268;DHT22;9260;49.998;19.880;2023-03-01T12:05:23;38.10;99.90
18268;DHT22;9260;49.998;19.880;2023-03-01T12:16:00;38.80;99.90
18268;DHT22;9260;49.998;19.880;2023-03-01T12:26:14;38.20;99.90
18268;DHT22;9260;49.998;19.880;2023-03-01T12:36:37;38.10;99.90
18268;DHT22;9260;49.998;19.880;2023-03-01T12:46:56;37.70;99.90
18268;DHT22;9260;49.998;19.880;2023-03-01T12:57:15;37.90;99.90
18268;DHT22;9260;49.998;19.880;2023-03-01T13:07:28;37.10;99.90
18268;DHT22;9260;49.998;19.880;2023-03-01T13:17:43;36.70;99.90
18268;DHT22;9260;49.998;19.880;2023-03-01T13:27:49;37.10;99.90
18268;DHT22;9260;49.998;19.880;2023-03-01T13:48:53;34.60;99.90
18268;DHT22;9260;49.998;19.880;2023-03-01T13:59:02;33.10;99.90
18268;DHT22;9260;49.998;19.880;2023-03-01T14:09:15;30.60;99.90
18268;DHT22;9260;49.998;19.880;2023-03-01T14:19:23;27.60;99.90
18268;DHT22;9260;49.998;19.880;2023-03-01T14:29:37;28.40;99.90
18268;DHT22;9260;49.998;19.880;2023-03-01T14:39:43;27.30;99.90
18268;DHT22;9260;49.998;19.880;2023-03-01T14:49:47;25.30;99.90
18268;DHT22;9260;49.998;19.880;2023-03-01T14:59:55;18.00;99.90
18268;DHT22;9260;49.998;19.880;2023-03-01T15:10:04;12.90;99.90
18268;DHT22;9260;49.998;19.880;2023-03-01T15:20:17;10.20;99.90
18268;DHT22;9260;49.998;19.880;2023-03-01T15:30:26;8.10;99.90
18268;DHT22;9260;49.998;19.880;2023-03-01T15:40:32;6.80;99.90
18268;DHT22;9260;49.998;19.880;2023-03-01T15:50:39;5.90;99.90
18268;DHT22;9260;49.998;19.880;2023-03-01T16:00:47;4.90;99.90
18268;DHT22;9260;49.998;19.880;2023-03-01T16:11:04;4.10;99.90
18268;DHT22;9260;49.998;19.880;2023-03-01T16:21:12;3.30;99.90
18268;DHT22;9260;49.998;19.880;2023-03-01T16:31:19;2.40;99.90
18268;DHT22;9260;49.998;19.880;2023-03-01T16:41:24;1.60;99.90
18268;DHT22;9260;49.998;19.880;2023-03-01T16:51:30;1.00;99.90
18268;DHT22;9260;49.998;19.880;2023-03-01T17:01:37;0.50;99.90
18268;DHT22;9260;49.998;19.880;2023-03-01T17:11:43;0.10;99.90
18268;DHT22;9260;49.998;19.880;2023-03-01T17:21:48;-0.20;99.90
18268;DHT22;9260;49.998;19.880;2023-03-01T17:31:51;-0.50;99.90
18268;DHT22;9260;49.998;19.880;2023-03-01T17:41:58;-0.70;99.90
18268;DHT22;9260;49.998;19.880;2023-03-01T17:52:01;-1.20;99.90
18268;DHT22;9260;49.998;19.880;2023-03-01T18:02:06;-1.60;99.90
18268;DHT22;9260;49.998;19.880;2023-03-01T18:12:12;-2.00;99.90
18268;DHT22;9260;49.998;19.880;2023-03-01T18:22:17;-2.10;99.90
18268;DHT22;9260;49.998;19.880;2023-03-01T18:32:20;-2.20;99.90
18268;DHT22;9260;49.998;19.880;2023-03-01T18:42:26;-2.40;99.90
18268;DHT22;9260;49.998;19.880;2023-03-01T18:52:29;-2.60;99.90
18268;DHT22;9260;49.998;19.880;2023-03-01T19:02:34;-2.70;99.90
18268;DHT22;9260;49.998;19.880;2023-03-01T19:12:38;-2.70;99.90
18268;DHT22;9260;49.998;19.880;2023-03-01T19:22:42;-2.90;99.90
18268;DHT22;9260;49.998;19.880;2023-03-01T19:32:46;-3.10;99.90
18268;DHT22;9260;49.998;19.880;2023-03-01T19:42:51;-3.20;99.90
18268;DHT22;9260;49.998;19.880;2023-03-01T19:52:55;-3.50;99.90
18268;DHT22;9260;49.998;19.880;2023-03-01T20:02:59;-3.70;99.90
18268;DHT22;9260;49.998;19.880;2023-03-01T20:13:03;-3.90;99.90
18268;DHT22;9260;49.998;19.880;2023-03-01T20:23:08;-4.00;99.90
18268;DHT22;9260;49.998;19.880;2023-03-01T20:33:12;-4.20;99.90
18268;DHT22;9260;49.998;19.880;2023-03-01T20:43:17;-4.60;99.90
18268;DHT22;9260;49.998;19.880;2023-03-01T20:53:22;-4.80;99.90
18268;DHT22;9260;49.998;19.880;2023-03-01T21:03:30;-4.80;99.90
18268;DHT22;9260;49.998;19.880;2023-03-01T21:13:34;-4.90;99.90
18268;DHT22;9260;49.998;19.880;2023-03-01T21:23:41;-5.30;99.90
18268;DHT22;9260;49.998;19.880;2023-03-01T21:33:47;-5.30;99.90
18268;DHT22;9260;49.998;19.880;2023-03-01T21:43:53;-5.30;99.90
18268;DHT22;9260;49.998;19.880;2023-03-01T21:53:58;-5.60;99.90
18268;DHT22;9260;49.998;19.880;2023-03-01T22:04:04;-5.80;99.90
18268;DHT22;9260;49.998;19.880;2023-03-01T22:14:08;-5.90;99.90
18268;DHT22;9260;49.998;19.880;2023-03-01T22:24:16;-6.10;99.90
18268;DHT22;9260;49.998;19.880;2023-03-01T22:34:20;-6.20;99.90
18268;DHT22;9260;49.998;19.880;2023-03-01T22:44:25;-6.30;99.90
18268;DHT22;9260;49.998;19.880;2023-03-01T22:54:28;-6.40;99.90
18268;DHT22;9260;49.998;19.880;2023-03-01T23:04:34;-6.30;99.90
18268;DHT22;9260;49.998;19.880;2023-03-01T23:14:37;-6.10;99.90
18268;DHT22;9260;49.998;19.880;2023-03-01T23:24:43;-6.20;99.90
18268;DHT22;9260;49.998;19.880;2023-03-01T23:34:47;-6.10;99.90
18268;DHT22;9260;49.998;19.880;2023-03-01T23:44:53;-6.30;99.90
18268;DHT22;9260;49.998;19.880;2023-03-01T23:54:57;-6.50;99.90
